Time;durP1;ratioP1;P1;durP2;ratioP2;P2;SDS_P1;SDS_P2;PMS_P1;PMS_P2;Temp;Humidity;BMP_temperature;BMP_pressure;BME280_temperature;BME280_humidity;BME280_pressure;Samples;Min_cycle;Max_cycle;Signal;HPM_P1;HPM_P2
2021/09/01 00:01:23;;;;;;;7.30;6.60;;;;;;;;;;5109064;28;24425;-58
2021/09/01 00:03:48;;;;;;;6.85;6.30;;;;;;;;;;5108010;28;24442;-58
2021/09/01 00:06:13;;;;;;;7.20;6.60;;;;;;;;;;5108774;27;24418;-60
2021/09/01 00:08:39;;;;;;;7.70;7.00;;;;;;;;;;5108810;28;24425;-59
2021/09/01 00:11:05;;;;;;;7.45;6.75;;;;;;;;;;5108845;28;24946;-59
2021/09/01 00:13:30;;;;;;;6.85;6.25;;;;;;;;;;5108100;28;24451;-59
2021/09/01 00:15:55;;;;;;;7.10;6.50;;;;;;;;;;5113377;27;24820;-59
2021/09/01 00:18:20;;;;;;;7.40;6.80;;;;;;;;;;5110233;27;25357;-59
2021/09/01 00:20:45;;;;;;;7.10;6.50;;;;;;;;;;5108739;28;24405;-59
2021/09/01 00:23:14;;;;;;;6.80;6.20;;;;;;;;;;5108075;28;24409;-59
2021/09/01 00:25:40;;;;;;;7.57;6.88;;;;;;;;;;5108201;28;24416;-59
2021/09/01 00:28:05;;;;;;;7.00;6.40;;;;;;;;;;5110655;27;24520;-59
2021/09/01 00:30:30;;;;;;;7.57;6.87;;;;;;;;;;5108168;28;24412;-59
2021/09/01 00:32:55;;;;;;;7.22;6.63;;;;;;;;;;5107981;28;24421;-59
2021/09/01 00:35:20;;;;;;;7.10;6.50;;;;;;;;;;5108432;28;24775;-59
2021/09/01 00:37:45;;;;;;;7.10;6.40;;;;;;;;;;5108064;27;24430;-59
2021/09/01 00:40:11;;;;;;;7.00;6.40;;;;;;;;;;5109841;27;24508;-59
2021/09/01 00:42:36;;;;;;;7.50;6.90;;;;;;;;;;5107455;28;24462;-59
2021/09/01 00:45:02;;;;;;;7.23;6.60;;;;;;;;;;5107455;28;24447;-59
2021/09/01 00:47:27;;;;;;;7.25;6.65;;;;;;;;;;5112921;27;24934;-59
2021/09/01 00:49:52;;;;;;;7.53;6.93;;;;;;;;;;5108196;28;24437;-59
2021/09/01 00:52:18;;;;;;;6.68;6.07;;;;;;;;;;5107941;28;24417;-59
2021/09/01 00:54:43;;;;;;;7.30;6.60;;;;;;;;;;5108300;28;24424;-58
2021/09/01 00:57:09;;;;;;;6.97;6.40;;;;;;;;;;5107649;28;24490;-58
2021/09/01 00:59:37;;;;;;;7.68;6.97;;;;;;;;;;5107571;28;24983;-59
2021/09/01 01:02:02;;;;;;;6.80;6.10;;;;;;;;;;5107300;28;24438;-59
2021/09/01 01:04:28;;;;;;;7.83;7.17;;;;;;;;;;5107758;28;24482;-59
2021/09/01 01:06:56;;;;;;;7.30;6.60;;;;;;;;;;5107501;28;24406;-59
2021/09/01 01:09:21;;;;;;;7.30;6.60;;;;;;;;;;5107627;28;24989;-59
2021/09/01 01:12:01;;;;;;;7.90;7.20;;;;;;;;;;5107195;28;24421;-59
2021/09/01 01:14:27;;;;;;;7.50;6.90;;;;;;;;;;5106888;28;24582;-59
2021/09/01 01:16:52;;;;;;;7.30;6.70;;;;;;;;;;5107074;28;25042;-60
2021/09/01 01:19:19;;;;;;;7.50;6.90;;;;;;;;;;5107319;28;25064;-60
2021/09/01 01:21:44;;;;;;;7.80;7.20;;;;;;;;;;5107651;28;24448;-59
2021/09/01 01:24:09;;;;;;;7.70;7.10;;;;;;;;;;5107582;28;25057;-60
2021/09/01 01:26:34;;;;;;;7.90;6.90;;;;;;;;;;5107364;28;24863;-60
2021/09/01 01:29:01;;;;;;;7.78;7.07;;;;;;;;;;5107539;28;24728;-60
2021/09/01 01:31:26;;;;;;;7.15;6.45;;;;;;;;;;5108068;28;24490;-59
2021/09/01 01:33:52;;;;;;;7.40;6.80;;;;;;;;;;5107510;28;24951;-60
2021/09/01 01:36:18;;;;;;;7.50;6.90;;;;;;;;;;5107622;28;24508;-59
2021/09/01 01:38:43;;;;;;;6.80;6.20;;;;;;;;;;5107557;28;24432;-59
2021/09/01 01:41:08;;;;;;;7.73;7.03;;;;;;;;;;5106541;28;24528;-59
2021/09/01 01:43:36;;;;;;;7.90;7.20;;;;;;;;;;5112855;28;24414;-60
2021/09/01 01:46:02;;;;;;;7.30;6.70;;;;;;;;;;5107173;28;24426;-59
2021/09/01 01:48:27;;;;;;;8.17;7.47;;;;;;;;;;5107015;28;24795;-59
2021/09/01 01:50:52;;;;;;;7.60;6.90;;;;;;;;;;5107224;28;24461;-58
2021/09/01 01:53:17;;;;;;;7.80;7.10;;;;;;;;;;5107453;28;24417;-58
2021/09/01 01:55:42;;;;;;;8.30;7.60;;;;;;;;;;5107417;28;24435;-59
2021/09/01 01:58:08;;;;;;;7.85;7.15;;;;;;;;;;5107796;28;25023;-59
2021/09/01 02:00:33;;;;;;;7.60;6.90;;;;;;;;;;5106990;28;24444;-59
2021/09/01 02:02:59;;;;;;;7.43;6.82;;;;;;;;;;5111853;27;25034;-59
2021/09/01 02:05:25;;;;;;;7.83;7.13;;;;;;;;;;5110775;28;24450;-59
2021/09/01 02:07:50;;;;;;;8.32;7.53;;;;;;;;;;5110939;28;24418;-59
2021/09/01 02:10:15;;;;;;;7.23;6.63;;;;;;;;;;5110358;28;24420;-59
2021/09/01 02:12:41;;;;;;;8.17;7.37;;;;;;;;;;5111080;28;24413;-59
2021/09/01 02:15:07;;;;;;;7.63;6.93;;;;;;;;;;5112002;27;24894;-59
2021/09/01 02:17:33;;;;;;;7.40;6.70;;;;;;;;;;5110670;28;24421;-59
2021/09/01 02:19:58;;;;;;;7.27;6.67;;;;;;;;;;5110357;28;24493;-58
2021/09/01 02:22:24;;;;;;;7.90;7.10;;;;;;;;;;5110232;28;24971;-59
2021/09/01 02:24:49;;;;;;;7.55;6.90;;;;;;;;;;5120080;27;24800;-58
2021/09/01 02:27:14;;;;;;;8.33;7.63;;;;;;;;;;5110821;28;24422;-58
2021/09/01 02:29:40;;;;;;;8.17;7.50;;;;;;;;;;5110559;28;25030;-58
2021/09/01 02:32:05;;;;;;;8.15;7.45;;;;;;;;;;5110306;28;25124;-59
2021/09/01 02:34:30;;;;;;;7.97;7.28;;;;;;;;;;5111367;27;24417;-59
2021/09/01 02:36:56;;;;;;;7.80;7.20;;;;;;;;;;5110172;28;24442;-59
2021/09/01 02:39:21;;;;;;;7.03;6.47;;;;;;;;;;5109825;28;24494;-59
2021/09/01 02:41:46;;;;;;;9.17;8.27;;;;;;;;;;5110438;28;24471;-59
2021/09/01 02:44:12;;;;;;;8.10;7.40;;;;;;;;;;5110740;28;25243;-58
2021/09/01 02:46:37;;;;;;;8.80;8.00;;;;;;;;;;5104180;27;24563;-59
2021/09/01 02:49:02;;;;;;;8.63;7.83;;;;;;;;;;5109856;28;25298;-58
2021/09/01 02:51:27;;;;;;;8.50;7.80;;;;;;;;;;5109415;28;24516;-59
2021/09/01 02:53:53;;;;;;;7.70;7.00;;;;;;;;;;5116137;27;24512;-59
2021/09/01 02:56:18;;;;;;;8.02;7.43;;;;;;;;;;5112620;27;24449;-58
2021/09/01 02:58:43;;;;;;;8.60;7.80;;;;;;;;;;5111728;27;24421;-58
2021/09/01 03:01:08;;;;;;;8.10;7.40;;;;;;;;;;5110389;28;24410;-58
2021/09/01 03:03:33;;;;;;;8.10;7.40;;;;;;;;;;5108992;28;24827;-58
2021/09/01 03:05:58;;;;;;;7.38;6.68;;;;;;;;;;5112615;27;24413;-58
2021/09/01 03:08:23;;;;;;;8.68;7.97;;;;;;;;;;5120134;27;24410;-59
2021/09/01 03:10:49;;;;;;;7.95;7.25;;;;;;;;;;5108867;28;24829;-59
2021/09/01 03:13:14;;;;;;;8.97;8.27;;;;;;;;;;5109168;28;24451;-59
2021/09/01 03:15:39;;;;;;;8.00;7.33;;;;;;;;;;5109296;28;24416;-59
2021/09/01 03:18:04;;;;;;;8.23;7.53;;;;;;;;;;5109832;27;24429;-59
2021/09/01 03:20:30;;;;;;;7.40;6.70;;;;;;;;;;5109264;28;24476;-59
2021/09/01 03:22:55;;;;;;;7.33;6.73;;;;;;;;;;5109625;28;24412;-59
2021/09/01 03:25:20;;;;;;;7.87;7.17;;;;;;;;;;5109315;28;24802;-59
2021/09/01 03:27:45;;;;;;;7.20;6.57;;;;;;;;;;5110430;27;24501;-59
2021/09/01 03:30:10;;;;;;;8.00;7.30;;;;;;;;;;5109207;28;24798;-59
2021/09/01 03:32:36;;;;;;;7.37;6.77;;;;;;;;;;5108408;28;24417;-59
2021/09/01 03:35:01;;;;;;;8.27;7.47;;;;;;;;;;5109154;28;25039;-59
2021/09/01 03:37:26;;;;;;;7.87;7.27;;;;;;;;;;5109698;27;25007;-59
2021/09/01 03:39:51;;;;;;;7.50;6.83;;;;;;;;;;5109522;28;24412;-59
2021/09/01 03:42:17;;;;;;;8.20;7.50;;;;;;;;;;5108669;28;24434;-58
2021/09/01 03:44:42;;;;;;;7.33;6.73;;;;;;;;;;5108793;28;25077;-59
2021/09/01 03:47:07;;;;;;;7.70;7.10;;;;;;;;;;5109082;28;24421;-58
2021/09/01 03:49:32;;;;;;;8.05;7.35;;;;;;;;;;5109041;27;24490;-58
2021/09/01 03:51:57;;;;;;;8.20;7.50;;;;;;;;;;5108929;28;25064;-59
2021/09/01 03:54:23;;;;;;;8.10;7.50;;;;;;;;;;5108345;28;24535;-59
2021/09/01 03:56:48;;;;;;;8.32;7.63;;;;;;;;;;5108889;28;24486;-59
2021/09/01 03:59:13;;;;;;;7.70;7.00;;;;;;;;;;5109673;27;24559;-59
2021/09/01 04:01:38;;;;;;;8.13;7.43;;;;;;;;;;5109246;28;24398;-59
2021/09/01 04:04:04;;;;;;;7.60;7.00;;;;;;;;;;5108717;28;24433;-59
2021/09/01 04:06:30;;;;;;;7.25;6.65;;;;;;;;;;5108155;28;24486;-59
2021/09/01 04:08:55;;;;;;;8.13;7.40;;;;;;;;;;5109023;27;24413;-59
2021/09/01 04:11:20;;;;;;;8.20;7.40;;;;;;;;;;5107399;28;24410;-59
2021/09/01 04:13:45;;;;;;;7.53;6.93;;;;;;;;;;5108383;28;25362;-59
2021/09/01 04:16:10;;;;;;;9.15;8.35;;;;;;;;;;5101454;28;24416;-60
2021/09/01 04:18:35;;;;;;;8.93;8.03;;;;;;;;;;5106673;28;24511;-59
2021/09/01 04:21:01;;;;;;;8.52;7.72;;;;;;;;;;5113884;27;24422;-60
2021/09/01 04:23:26;;;;;;;9.93;8.93;;;;;;;;;;5107509;28;24501;-60
2021/09/01 04:25:51;;;;;;;9.03;8.23;;;;;;;;;;5106733;28;25031;-59
2021/09/01 04:28:16;;;;;;;8.87;8.07;;;;;;;;;;5108157;28;24547;-61
2021/09/01 04:30:41;;;;;;;9.17;8.33;;;;;;;;;;5116563;27;24621;-59
2021/09/01 04:33:07;;;;;;;8.70;8.00;;;;;;;;;;5114673;27;24543;-59
2021/09/01 04:35:32;;;;;;;8.93;8.23;;;;;;;;;;5108438;28;24521;-59
2021/09/01 04:37:57;;;;;;;8.85;8.05;;;;;;;;;;5105299;28;24817;-59
2021/09/01 04:40:22;;;;;;;9.68;8.77;;;;;;;;;;5105874;28;24486;-59
2021/09/01 04:42:47;;;;;;;8.43;7.80;;;;;;;;;;5107042;28;24519;-59
2021/09/01 04:45:12;;;;;;;8.27;7.50;;;;;;;;;;5107365;28;24425;-60
2021/09/01 04:47:38;;;;;;;8.33;7.63;;;;;;;;;;5106504;28;24421;-59
2021/09/01 04:50:03;;;;;;;9.10;8.40;;;;;;;;;;5106326;28;24848;-59
2021/09/01 04:52:28;;;;;;;9.40;8.60;;;;;;;;;;5103274;28;24795;-59
2021/09/01 04:54:53;;;;;;;8.87;8.17;;;;;;;;;;5103721;28;25026;-60
2021/09/01 04:57:19;;;;;;;8.10;7.40;;;;;;;;;;5104658;28;24549;-59
2021/09/01 04:59:44;;;;;;;9.00;8.20;;;;;;;;;;5102822;28;24432;-59
2021/09/01 05:02:09;;;;;;;8.00;7.35;;;;;;;;;;5104245;28;24445;-59
2021/09/01 05:04:34;;;;;;;7.90;7.23;;;;;;;;;;5097304;28;25041;-60
2021/09/01 05:06:59;;;;;;;8.90;8.10;;;;;;;;;;5092288;28;24963;-57
2021/09/01 05:09:24;;;;;;;8.30;7.60;;;;;;;;;;5104235;28;24982;-59
2021/09/01 05:11:50;;;;;;;9.10;8.30;;;;;;;;;;5105260;28;24470;-59
2021/09/01 05:14:15;;;;;;;7.82;7.20;;;;;;;;;;5104560;28;24417;-59
2021/09/01 05:16:41;;;;;;;8.27;7.57;;;;;;;;;;5105423;28;24425;-59
2021/09/01 05:19:07;;;;;;;8.50;7.80;;;;;;;;;;5110104;28;24451;-59
2021/09/01 05:21:33;;;;;;;8.27;7.57;;;;;;;;;;5109238;28;24417;-59
2021/09/01 05:23:59;;;;;;;8.30;7.60;;;;;;;;;;5106941;28;24476;-60
2021/09/01 05:26:31;;;;;;;8.70;8.00;;;;;;;;;;5105978;28;24967;-59
2021/09/01 05:29:00;;;;;;;8.17;7.47;;;;;;;;;;5106655;28;24429;-59
2021/09/01 05:31:30;;;;;;;8.40;7.70;;;;;;;;;;5107388;28;24449;-59
2021/09/01 05:33:55;;;;;;;8.00;7.40;;;;;;;;;;5106482;28;24428;-59
2021/09/01 05:36:21;;;;;;;7.47;6.77;;;;;;;;;;5109911;27;24449;-59
2021/09/01 05:38:46;;;;;;;9.60;8.80;;;;;;;;;;5107357;28;24502;-60
2021/09/01 05:41:12;;;;;;;9.38;8.48;;;;;;;;;;5112587;27;24992;-60
2021/09/01 05:43:38;;;;;;;8.10;7.40;;;;;;;;;;5110606;28;24998;-60
2021/09/01 05:46:04;;;;;;;9.40;8.60;;;;;;;;;;5109717;28;24418;-60
2021/09/01 05:48:29;;;;;;;9.67;8.77;;;;;;;;;;5110797;28;24409;-60
2021/09/01 05:50:55;;;;;;;8.10;7.40;;;;;;;;;;5111898;27;24502;-60
2021/09/01 05:53:21;;;;;;;8.90;8.20;;;;;;;;;;5111593;28;24472;-60
2021/09/01 05:55:48;;;;;;;8.18;7.47;;;;;;;;;;5111463;28;24397;-61
2021/09/01 05:58:15;;;;;;;8.23;7.53;;;;;;;;;;5111443;28;24595;-61
2021/09/01 06:00:41;;;;;;;8.00;7.30;;;;;;;;;;5111231;27;25042;-61
2021/09/01 06:03:16;;;;;;;8.80;8.10;;;;;;;;;;5110818;28;24508;-61
2021/09/01 06:05:43;;;;;;;9.43;8.63;;;;;;;;;;5107916;27;24424;-61
2021/09/01 06:08:09;;;;;;;8.37;7.67;;;;;;;;;;5112254;27;24429;-61
2021/09/01 06:10:35;;;;;;;10.00;9.10;;;;;;;;;;5116103;27;24721;-60
2021/09/01 06:13:07;;;;;;;10.63;9.65;;;;;;;;;;5118475;27;24821;-61
2021/09/01 06:15:33;;;;;;;11.82;10.77;;;;;;;;;;5114602;27;24836;-62
2021/09/01 06:18:00;;;;;;;10.80;9.50;;;;;;;;;;5126390;27;24998;-61
2021/09/01 06:20:25;;;;;;;11.07;10.07;;;;;;;;;;5110633;28;24950;-61
2021/09/01 06:22:50;;;;;;;11.17;10.10;;;;;;;;;;5116999;27;24491;-60
2021/09/01 06:25:15;;;;;;;11.50;10.50;;;;;;;;;;5111715;27;24864;-60
2021/09/01 06:27:40;;;;;;;11.47;10.47;;;;;;;;;;5120857;27;24413;-60
2021/09/01 06:30:06;;;;;;;10.40;9.50;;;;;;;;;;5110529;28;24827;-60
2021/09/01 06:32:31;;;;;;;12.07;10.97;;;;;;;;;;5109555;28;24481;-60
2021/09/01 06:34:56;;;;;;;13.27;11.97;;;;;;;;;;5109639;28;24417;-60
2021/09/01 06:37:22;;;;;;;13.70;11.02;;;;;;;;;;5111155;27;24428;-61
2021/09/01 06:39:48;;;;;;;11.18;10.18;;;;;;;;;;5118111;27;24492;-60
2021/09/01 06:42:13;;;;;;;11.95;10.85;;;;;;;;;;5110527;28;24409;-60
2021/09/01 06:44:39;;;;;;;12.10;11.00;;;;;;;;;;5110773;28;24950;-60
2021/09/01 06:47:05;;;;;;;11.20;10.20;;;;;;;;;;5118329;27;24460;-60
2021/09/01 06:49:30;;;;;;;10.50;9.60;;;;;;;;;;5122463;27;25024;-60
2021/09/01 06:51:55;;;;;;;12.00;10.90;;;;;;;;;;5108902;27;25209;-59
2021/09/01 06:54:20;;;;;;;10.20;9.17;;;;;;;;;;5110423;28;24430;-60
2021/09/01 06:56:45;;;;;;;8.82;8.02;;;;;;;;;;5107781;28;24436;-60
2021/09/01 06:59:11;;;;;;;9.88;9.05;;;;;;;;;;5108632;27;24413;-60
2021/09/01 07:01:36;;;;;;;9.00;8.20;;;;;;;;;;5108978;28;24471;-61
2021/09/01 07:04:01;;;;;;;7.78;7.18;;;;;;;;;;5108668;28;24405;-61
2021/09/01 07:06:26;;;;;;;10.03;9.10;;;;;;;;;;5108599;28;24422;-60
2021/09/01 07:08:51;;;;;;;8.90;8.10;;;;;;;;;;5109386;28;24425;-61
2021/09/01 07:11:17;;;;;;;9.20;8.30;;;;;;;;;;5110921;27;24844;-61
2021/09/01 07:13:43;;;;;;;10.20;9.30;;;;;;;;;;5109839;28;24959;-60
2021/09/01 07:16:08;;;;;;;9.32;8.60;;;;;;;;;;5109762;28;24970;-60
2021/09/01 07:18:33;;;;;;;9.63;8.73;;;;;;;;;;5109630;28;24437;-60
2021/09/01 07:20:58;;;;;;;10.18;9.18;;;;;;;;;;5109929;28;24560;-61
2021/09/01 07:23:23;;;;;;;9.93;9.02;;;;;;;;;;5115987;27;24496;-60
2021/09/01 07:25:49;;;;;;;10.35;9.40;;;;;;;;;;5109297;28;24966;-60
2021/09/01 07:28:14;;;;;;;9.13;8.33;;;;;;;;;;5109953;28;24409;-60
2021/09/01 07:30:39;;;;;;;10.00;9.20;;;;;;;;;;5109272;28;24515;-64
2021/09/01 07:33:04;;;;;;;10.30;9.30;;;;;;;;;;5113570;27;24417;-61
2021/09/01 07:35:29;;;;;;;11.50;10.50;;;;;;;;;;5119201;27;24751;-61
2021/09/01 07:37:55;;;;;;;10.40;9.50;;;;;;;;;;5109442;28;24421;-60
2021/09/01 07:40:21;;;;;;;10.97;9.93;;;;;;;;;;5109434;28;24443;-61
2021/09/01 07:42:47;;;;;;;11.30;10.30;;;;;;;;;;5109058;28;24416;-61
2021/09/01 07:45:13;;;;;;;12.10;10.90;;;;;;;;;;5091623;27;24401;-61
2021/09/01 07:47:45;;;;;;;12.68;11.57;;;;;;;;;;5118652;27;24451;-61
2021/09/01 07:50:10;;;;;;;12.50;11.20;;;;;;;;;;5108841;28;24469;-60
2021/09/01 07:52:35;;;;;;;13.60;12.20;;;;;;;;;;5109178;28;24385;-59
2021/09/01 07:55:00;;;;;;;13.20;11.98;;;;;;;;;;5108822;28;24398;-60
2021/09/01 07:57:25;;;;;;;12.30;11.20;;;;;;;;;;5109459;28;24426;-60
2021/09/01 07:59:50;;;;;;;13.75;12.40;;;;;;;;;;5118801;27;25017;-60
2021/09/01 08:02:15;;;;;;;13.83;12.53;;;;;;;;;;5108607;28;24978;-60
2021/09/01 08:04:41;;;;;;;12.23;11.23;;;;;;;;;;5108800;28;24413;-61
2021/09/01 08:07:06;;;;;;;12.70;11.50;;;;;;;;;;5109283;28;24398;-61
2021/09/01 08:09:31;;;;;;;11.87;10.77;;;;;;;;;;5109576;27;24406;-61
2021/09/01 08:11:56;;;;;;;12.27;11.10;;;;;;;;;;5108701;28;25241;-61
2021/09/01 08:14:21;;;;;;;10.25;9.30;;;;;;;;;;5109069;28;24477;-60
2021/09/01 08:16:46;;;;;;;13.02;11.82;;;;;;;;;;5108325;28;24496;-61
2021/09/01 08:19:11;;;;;;;12.40;11.20;;;;;;;;;;5112800;27;24832;-61
2021/09/01 08:21:37;;;;;;;12.35;11.18;;;;;;;;;;5128778;27;24989;-60
2021/09/01 08:24:02;;;;;;;12.50;11.20;;;;;;;;;;5129259;27;24388;-61
2021/09/01 08:26:27;;;;;;;11.73;10.63;;;;;;;;;;5128975;27;24412;-61
2021/09/01 08:28:52;;;;;;;11.20;10.10;;;;;;;;;;5128983;27;24480;-60
2021/09/01 08:31:17;;;;;;;12.68;11.48;;;;;;;;;;5126791;27;24424;-60
2021/09/01 08:33:43;;;;;;;11.00;9.80;;;;;;;;;;5113619;27;24654;-60
2021/09/01 08:36:08;;;;;;;11.93;10.83;;;;;;;;;;5128302;27;24417;-60
2021/09/01 08:38:33;;;;;;;11.68;10.57;;;;;;;;;;5128972;27;24389;-60
2021/09/01 08:40:58;;;;;;;10.67;9.70;;;;;;;;;;5126681;27;24400;-60
2021/09/01 08:43:24;;;;;;;10.80;9.90;;;;;;;;;;5108239;28;24386;-61
2021/09/01 08:45:49;;;;;;;11.90;10.70;;;;;;;;;;5108902;27;24509;-60
2021/09/01 08:48:15;;;;;;;11.80;10.70;;;;;;;;;;5108130;28;24447;-61
2021/09/01 08:50:41;;;;;;;10.73;9.73;;;;;;;;;;5107919;28;24795;-60
2021/09/01 08:53:06;;;;;;;10.93;9.83;;;;;;;;;;5107349;28;24406;-61
2021/09/01 08:55:31;;;;;;;11.47;10.37;;;;;;;;;;5107975;28;24951;-61
2021/09/01 08:57:56;;;;;;;11.50;10.45;;;;;;;;;;5119543;27;24433;-61
2021/09/01 09:00:21;;;;;;;10.85;9.95;;;;;;;;;;5113268;27;24509;-61
2021/09/01 09:02:57;;;;;;;10.57;9.57;;;;;;;;;;5107534;28;25392;-61
2021/09/01 09:05:29;;;;;;;11.88;10.77;;;;;;;;;;5107648;28;24497;-61
2021/09/01 09:07:55;;;;;;;10.38;9.48;;;;;;;;;;5107934;28;24398;-61
2021/09/01 09:10:26;;;;;;;11.60;10.60;;;;;;;;;;5117155;27;24411;-61
2021/09/01 09:12:58;;;;;;;11.57;10.57;;;;;;;;;;5127959;28;24462;-61
2021/09/01 09:15:24;;;;;;;11.63;10.52;;;;;;;;;;5128549;28;24504;-60
2021/09/01 09:17:49;;;;;;;11.82;10.73;;;;;;;;;;5128168;28;24500;-60
2021/09/01 09:20:14;;;;;;;13.17;11.83;;;;;;;;;;5125594;28;24770;-60
2021/09/01 09:22:40;;;;;;;13.75;12.55;;;;;;;;;;5107333;28;25035;-61
2021/09/01 09:25:18;;;;;;;13.00;11.90;;;;;;;;;;5107746;28;24460;-61
2021/09/01 09:27:48;;;;;;;13.20;12.10;;;;;;;;;;5107948;28;24447;-60
2021/09/01 09:30:19;;;;;;;13.65;12.25;;;;;;;;;;5107879;28;24397;-61
2021/09/01 09:32:56;;;;;;;13.80;12.50;;;;;;;;;;5102235;28;24449;-60
2021/09/01 09:35:21;;;;;;;12.90;11.80;;;;;;;;;;5113976;28;25044;-60
2021/09/01 09:37:59;;;;;;;12.70;11.50;;;;;;;;;;5127832;28;24438;-61
2021/09/01 09:40:24;;;;;;;13.32;12.13;;;;;;;;;;5107276;28;24413;-60
2021/09/01 09:42:49;;;;;;;13.33;12.13;;;;;;;;;;5107174;28;24980;-61
2021/09/01 09:45:19;;;;;;;13.57;12.17;;;;;;;;;;5108152;28;24441;-61
2021/09/01 09:47:44;;;;;;;11.80;10.80;;;;;;;;;;5127674;27;24977;-60
2021/09/01 09:50:10;;;;;;;12.50;11.40;;;;;;;;;;5127726;28;24489;-62
2021/09/01 09:52:35;;;;;;;12.33;11.33;;;;;;;;;;5128044;28;25009;-60
2021/09/01 09:55:08;;;;;;;9.80;8.90;;;;;;;;;;5113560;28;24430;-60
2021/09/01 09:57:33;;;;;;;12.20;11.20;;;;;;;;;;5122595;28;24907;-61
2021/09/01 09:59:59;;;;;;;13.13;11.83;;;;;;;;;;5128016;28;24426;-60
2021/09/01 10:02:24;;;;;;;11.90;10.83;;;;;;;;;;5127939;28;24437;-61
2021/09/01 10:04:49;;;;;;;12.00;10.90;;;;;;;;;;5127659;28;24747;-60
2021/09/01 10:07:14;;;;;;;11.40;10.50;;;;;;;;;;5126134;28;24459;-61
2021/09/01 10:09:39;;;;;;;11.18;10.27;;;;;;;;;;5121879;28;24456;-61
2021/09/01 10:12:04;;;;;;;11.80;10.60;;;;;;;;;;5107483;28;24744;-61
2021/09/01 10:14:30;;;;;;;11.57;10.37;;;;;;;;;;5107275;28;24394;-61
2021/09/01 10:16:59;;;;;;;12.40;11.30;;;;;;;;;;5107256;28;24410;-61
2021/09/01 10:19:26;;;;;;;12.02;10.82;;;;;;;;;;5107990;28;24416;-61
2021/09/01 10:21:56;;;;;;;11.85;10.65;;;;;;;;;;5107412;28;24527;-61
2021/09/01 10:24:28;;;;;;;10.63;9.63;;;;;;;;;;5110951;28;24861;-61
2021/09/01 10:26:57;;;;;;;10.43;9.52;;;;;;;;;;5110414;28;24527;-61
2021/09/01 10:29:41;;;;;;;10.27;9.37;;;;;;;;;;5110891;28;25218;-60
2021/09/01 10:32:20;;;;;;;9.40;8.60;;;;;;;;;;5099964;27;24448;-61
2021/09/01 10:34:45;;;;;;;9.32;8.50;;;;;;;;;;5110679;28;25011;-60
2021/09/01 10:37:30;;;;;;;9.60;8.70;;;;;;;;;;5110430;28;24559;-61
2021/09/01 10:39:55;;;;;;;8.35;7.60;;;;;;;;;;5110237;28;24802;-60
2021/09/01 10:42:34;;;;;;;9.70;8.90;;;;;;;;;;5110536;28;24443;-61
2021/09/01 10:45:00;;;;;;;10.10;9.20;;;;;;;;;;5116587;27;24828;-61
2021/09/01 10:47:25;;;;;;;9.53;8.63;;;;;;;;;;5128829;27;25046;-61
2021/09/01 10:50:00;;;;;;;11.18;10.18;;;;;;;;;;5128061;27;24553;-61
2021/09/01 10:52:25;;;;;;;10.17;9.20;;;;;;;;;;5131047;27;24454;-61
2021/09/01 10:54:50;;;;;;;10.50;9.50;;;;;;;;;;5130627;27;24400;-61
2021/09/01 10:57:23;;;;;;;10.55;9.65;;;;;;;;;;5121043;27;24491;-61
2021/09/01 10:59:48;;;;;;;10.52;9.63;;;;;;;;;;5110319;28;24800;-61
2021/09/01 11:02:14;;;;;;;10.50;9.60;;;;;;;;;;5110081;28;24932;-61
2021/09/01 11:04:47;;;;;;;10.27;9.38;;;;;;;;;;5110052;28;24386;-61
2021/09/01 11:07:17;;;;;;;9.63;8.80;;;;;;;;;;5110132;28;24514;-61
2021/09/01 11:09:42;;;;;;;10.00;9.10;;;;;;;;;;5110809;27;24428;-61
2021/09/01 11:12:08;;;;;;;11.52;10.45;;;;;;;;;;5109679;28;24436;-60
2021/09/01 11:14:43;;;;;;;11.18;9.85;;;;;;;;;;5109902;28;24975;-61
2021/09/01 11:17:09;;;;;;;9.40;8.60;;;;;;;;;;5109608;28;24437;-60
2021/09/01 11:19:35;;;;;;;9.90;8.98;;;;;;;;;;5109896;28;24966;-61
2021/09/01 11:22:03;;;;;;;10.50;9.60;;;;;;;;;;5110473;27;24409;-61
2021/09/01 11:24:28;;;;;;;10.30;9.40;;;;;;;;;;5109632;28;24394;-61
2021/09/01 11:26:55;;;;;;;10.40;9.50;;;;;;;;;;5109850;28;24442;-61
2021/09/01 11:29:28;;;;;;;10.73;9.73;;;;;;;;;;5109276;28;24414;-61
2021/09/01 11:31:53;;;;;;;11.55;10.45;;;;;;;;;;5109631;28;24962;-61
2021/09/01 11:34:19;;;;;;;11.00;9.93;;;;;;;;;;5113109;27;24428;-62
2021/09/01 11:36:45;;;;;;;10.87;9.87;;;;;;;;;;5129986;27;24897;-60
2021/09/01 11:39:10;;;;;;;11.10;9.53;;;;;;;;;;5114111;27;24405;-61
2021/09/01 11:41:36;;;;;;;10.07;9.17;;;;;;;;;;5109709;28;24447;-61
2021/09/01 11:44:03;;;;;;;9.68;8.77;;;;;;;;;;5108958;28;24390;-61
2021/09/01 11:46:32;;;;;;;10.20;9.20;;;;;;;;;;5112544;27;24427;-61
2021/09/01 11:49:03;;;;;;;10.63;9.52;;;;;;;;;;5108891;28;24443;-60
2021/09/01 11:51:28;;;;;;;10.50;9.60;;;;;;;;;;5109079;28;24386;-61
2021/09/01 11:53:56;;;;;;;10.20;9.30;;;;;;;;;;5109032;28;24438;-60
2021/09/01 11:56:21;;;;;;;9.77;8.88;;;;;;;;;;5109333;28;24413;-60
2021/09/01 11:58:56;;;;;;;10.88;9.88;;;;;;;;;;5123614;27;24405;-61
2021/09/01 12:01:21;;;;;;;10.15;9.15;;;;;;;;;;5129358;27;24415;-62
2021/09/01 12:03:47;;;;;;;12.17;10.10;;;;;;;;;;5114780;27;24841;-61
2021/09/01 12:06:12;;;;;;;10.70;9.70;;;;;;;;;;5108716;28;24538;-61
2021/09/01 12:08:40;;;;;;;11.43;10.23;;;;;;;;;;5108616;28;24385;-61
2021/09/01 12:11:06;;;;;;;11.20;10.20;;;;;;;;;;5108618;28;24474;-61
2021/09/01 12:13:41;;;;;;;12.00;10.90;;;;;;;;;;5108323;28;24535;-61
2021/09/01 12:16:07;;;;;;;10.90;9.90;;;;;;;;;;5108475;28;24440;-62
2021/09/01 12:18:50;;;;;;;10.67;9.73;;;;;;;;;;5107696;28;25054;-62
2021/09/01 12:21:15;;;;;;;11.75;10.60;;;;;;;;;;5108700;28;24382;-62
2021/09/01 12:23:40;;;;;;;11.40;10.20;;;;;;;;;;5108314;28;24489;-62
2021/09/01 12:26:06;;;;;;;11.40;10.30;;;;;;;;;;5108442;28;24484;-62
2021/09/01 12:28:42;;;;;;;12.20;11.00;;;;;;;;;;5101913;28;24433;-62
2021/09/01 12:31:16;;;;;;;11.25;10.18;;;;;;;;;;5107929;28;24422;-63
2021/09/01 12:33:41;;;;;;;11.35;10.35;;;;;;;;;;5108072;28;24410;-62
2021/09/01 12:36:07;;;;;;;11.10;10.20;;;;;;;;;;5108081;28;24408;-62
2021/09/01 12:38:32;;;;;;;10.85;9.85;;;;;;;;;;5108086;28;24424;-63
2021/09/01 12:40:58;;;;;;;10.57;9.68;;;;;;;;;;5107781;28;25001;-63
2021/09/01 12:43:23;;;;;;;10.20;9.30;;;;;;;;;;5108507;28;24397;-62
2021/09/01 12:45:58;;;;;;;10.37;9.40;;;;;;;;;;5106772;28;25069;-62
2021/09/01 12:48:31;;;;;;;9.90;9.00;;;;;;;;;;5107793;28;24413;-62
2021/09/01 12:50:57;;;;;;;11.00;9.90;;;;;;;;;;5107912;28;24793;-62
2021/09/01 12:53:23;;;;;;;10.38;9.45;;;;;;;;;;5089627;28;24512;-63
2021/09/01 12:55:52;;;;;;;11.05;9.95;;;;;;;;;;5107791;28;24505;-63
2021/09/01 12:58:18;;;;;;;10.65;9.65;;;;;;;;;;5107878;28;24405;-62
2021/09/01 13:00:43;;;;;;;10.60;9.60;;;;;;;;;;5107619;28;24996;-62
2021/09/01 13:03:09;;;;;;;11.00;10.00;;;;;;;;;;5107682;28;24410;-62
2021/09/01 13:05:34;;;;;;;11.48;10.48;;;;;;;;;;5107841;28;24780;-62
2021/09/01 13:08:00;;;;;;;10.83;9.83;;;;;;;;;;5108089;28;24527;-62
2021/09/01 13:10:25;;;;;;;10.88;9.77;;;;;;;;;;5107660;28;24546;-63
2021/09/01 13:12:52;;;;;;;10.43;9.53;;;;;;;;;;5108011;28;24474;-62
2021/09/01 13:15:18;;;;;;;10.60;9.60;;;;;;;;;;5107497;28;24400;-62
2021/09/01 13:17:43;;;;;;;10.50;9.50;;;;;;;;;;5107621;28;24767;-60
2021/09/01 13:20:10;;;;;;;11.50;10.40;;;;;;;;;;5106904;28;25000;-61
2021/09/01 13:22:35;;;;;;;10.50;9.40;;;;;;;;;;5107214;28;24413;-61
2021/09/01 13:25:00;;;;;;;10.18;9.27;;;;;;;;;;5107392;28;24404;-61
2021/09/01 13:27:26;;;;;;;9.90;9.00;;;;;;;;;;5099555;28;24395;-61
2021/09/01 13:29:52;;;;;;;10.70;9.80;;;;;;;;;;5087331;28;24405;-62
2021/09/01 13:32:17;;;;;;;11.07;9.98;;;;;;;;;;5087067;28;24407;-61
2021/09/01 13:34:42;;;;;;;11.63;10.63;;;;;;;;;;5097589;28;24511;-60
2021/09/01 13:37:07;;;;;;;11.00;10.00;;;;;;;;;;5107495;28;24471;-61
2021/09/01 13:39:33;;;;;;;11.87;10.47;;;;;;;;;;5107398;28;24424;-61
2021/09/01 13:41:58;;;;;;;11.25;10.30;;;;;;;;;;5107442;28;24385;-62
2021/09/01 13:44:23;;;;;;;10.20;9.20;;;;;;;;;;5107374;28;24934;-62
2021/09/01 13:46:48;;;;;;;10.50;9.60;;;;;;;;;;5107422;28;24433;-62
2021/09/01 13:49:13;;;;;;;9.98;9.07;;;;;;;;;;5106495;28;24580;-63
2021/09/01 13:51:38;;;;;;;10.35;9.35;;;;;;;;;;5107468;28;24537;-65
2021/09/01 13:54:04;;;;;;;10.47;9.57;;;;;;;;;;5106892;28;24432;-62
2021/09/01 13:56:30;;;;;;;11.20;10.20;;;;;;;;;;5108729;28;24389;-62
2021/09/01 13:58:56;;;;;;;9.77;8.98;;;;;;;;;;5111243;28;24378;-62
2021/09/01 14:01:21;;;;;;;9.63;8.82;;;;;;;;;;5110866;28;24393;-62
2021/09/01 14:03:47;;;;;;;11.37;10.37;;;;;;;;;;5111257;28;24473;-62
2021/09/01 14:06:13;;;;;;;11.32;10.25;;;;;;;;;;5110509;28;24443;-62
2021/09/01 14:08:38;;;;;;;11.33;10.10;;;;;;;;;;5111193;28;24410;-62
2021/09/01 14:11:03;;;;;;;10.57;9.60;;;;;;;;;;5110591;28;24923;-62
2021/09/01 14:13:28;;;;;;;10.30;9.40;;;;;;;;;;5111176;28;24967;-62
2021/09/01 14:15:53;;;;;;;9.90;9.10;;;;;;;;;;5110897;28;24412;-62
2021/09/01 14:18:20;;;;;;;9.10;8.37;;;;;;;;;;5110909;28;24451;-62
2021/09/01 14:20:45;;;;;;;9.80;8.90;;;;;;;;;;5110696;28;24479;-62
2021/09/01 14:23:10;;;;;;;10.33;9.43;;;;;;;;;;5110427;28;24393;-62
2021/09/01 14:25:36;;;;;;;10.60;9.60;;;;;;;;;;5110495;28;25010;-62
2021/09/01 14:28:01;;;;;;;11.00;10.00;;;;;;;;;;5110547;28;24470;-62